sensor_id;sensor_type;location;lat;lon;timestamp;P1;durP1;ratioP1;P2;durP2;ratioP2
62673;SDS011;62269;47.594;17.638;2023-02-14T00:00:13;16.75;;;13.60;;
62673;SDS011;62269;47.594;17.638;2023-02-14T00:01:34;17.75;;;14.45;;
62673;SDS011;62269;47.594;17.638;2023-02-14T00:02:14;17.58;;;13.88;;
62673;SDS011;62269;47.594;17.638;2023-02-14T00:03:04;19.83;;;14.98;;
62673;SDS011;62269;47.594;17.638;2023-02-14T00:03:51;15.90;;;13.07;;
62673;SDS011;62269;47.594;17.638;2023-02-14T00:04:38;15.48;;;13.07;;
62673;SDS011;62269;47.594;17.638;2023-02-14T00:05:29;15.75;;;13.40;;
62673;SDS011;62269;47.594;17.638;2023-02-14T00:06:16;17.37;;;13.60;;
62673;SDS011;62269;47.594;17.638;2023-02-14T00:07:04;16.12;;;13.27;;
62673;SDS011;62269;47.594;17.638;2023-02-14T00:07:53;17.12;;;13.95;;
62673;SDS011;62269;47.594;17.638;2023-02-14T00:08:41;16.58;;;13.43;;
62673;SDS011;62269;47.594;17.638;2023-02-14T00:09:30;18.65;;;13.62;;
62673;SDS011;62269;47.594;17.638;2023-02-14T00:10:18;17.40;;;13.68;;
62673;SDS011;62269;47.594;17.638;2023-02-14T00:11:05;16.05;;;13.38;;
62673;SDS011;62269;47.594;17.638;2023-02-14T00:11:54;16.87;;;14.27;;
62673;SDS011;62269;47.594;17.638;2023-02-14T00:12:42;16.87;;;13.55;;
62673;SDS011;62269;47.594;17.638;2023-02-14T00:13:29;16.05;;;14.10;;
62673;SDS011;62269;47.594;17.638;2023-02-14T00:14:16;16.92;;;13.65;;
62673;SDS011;62269;47.594;17.638;2023-02-14T00:15:22;16.15;;;13.48;;
62673;SDS011;62269;47.594;17.638;2023-02-14T00:16:09;16.65;;;13.95;;
62673;SDS011;62269;47.594;17.638;2023-02-14T00:16:58;15.50;;;13.10;;
62673;SDS011;62269;47.594;17.638;2023-02-14T00:17:45;15.38;;;13.20;;
62673;SDS011;62269;47.594;17.638;2023-02-14T00:18:33;16.45;;;13.43;;
62673;SDS011;62269;47.594;17.638;2023-02-14T00:19:38;16.17;;;13.55;;
62673;SDS011;62269;47.594;17.638;2023-02-14T00:20:26;16.55;;;13.57;;
62673;SDS011;62269;47.594;17.638;2023-02-14T00:21:14;16.40;;;14.18;;
62673;SDS011;62269;47.594;17.638;2023-02-14T00:22:01;20.85;;;14.13;;
62673;SDS011;62269;47.594;17.638;2023-02-14T00:22:49;17.77;;;15.23;;
62673;SDS011;62269;47.594;17.638;2023-02-14T00:23:36;16.45;;;13.32;;
62673;SDS011;62269;47.594;17.638;2023-02-14T00:24:24;16.67;;;13.65;;
62673;SDS011;62269;47.594;17.638;2023-02-14T00:25:11;16.30;;;14.10;;
62673;SDS011;62269;47.594;17.638;2023-02-14T00:25:59;19.37;;;14.27;;
62673;SDS011;62269;47.594;17.638;2023-02-14T00:26:46;17.67;;;13.95;;
62673;SDS011;62269;47.594;17.638;2023-02-14T00:27:33;16.87;;;13.45;;
62673;SDS011;62269;47.594;17.638;2023-02-14T00:28:20;18.35;;;14.30;;
62673;SDS011;62269;47.594;17.638;2023-02-14T00:29:08;16.58;;;14.15;;
62673;SDS011;62269;47.594;17.638;2023-02-14T00:29:57;16.30;;;14.38;;
62673;SDS011;62269;47.594;17.638;2023-02-14T00:30:47;15.43;;;13.57;;
62673;SDS011;62269;47.594;17.638;2023-02-14T00:31:35;18.42;;;13.82;;
62673;SDS011;62269;47.594;17.638;2023-02-14T00:32:24;14.95;;;13.13;;
62673;SDS011;62269;47.594;17.638;2023-02-14T00:33:11;18.15;;;13.85;;
62673;SDS011;62269;47.594;17.638;2023-02-14T00:33:58;17.30;;;14.60;;
62673;SDS011;62269;47.594;17.638;2023-02-14T00:34:46;15.73;;;13.50;;
62673;SDS011;62269;47.594;17.638;2023-02-14T00:35:36;18.92;;;14.55;;
62673;SDS011;62269;47.594;17.638;2023-02-14T00:36:23;17.90;;;15.02;;
62673;SDS011;62269;47.594;17.638;2023-02-14T00:37:10;16.35;;;13.60;;
62673;SDS011;62269;47.594;17.638;2023-02-14T00:37:57;17.30;;;14.80;;
62673;SDS011;62269;47.594;17.638;2023-02-14T00:38:44;17.10;;;14.23;;
62673;SDS011;62269;47.594;17.638;2023-02-14T00:39:31;16.70;;;13.45;;
62673;SDS011;62269;47.594;17.638;2023-02-14T00:40:18;17.20;;;13.65;;
62673;SDS011;62269;47.594;17.638;2023-02-14T00:41:05;18.50;;;13.93;;
62673;SDS011;62269;47.594;17.638;2023-02-14T00:41:53;16.90;;;14.13;;
62673;SDS011;62269;47.594;17.638;2023-02-14T00:42:40;16.17;;;13.55;;
62673;SDS011;62269;47.594;17.638;2023-02-14T00:43:27;19.08;;;13.95;;
62673;SDS011;62269;47.594;17.638;2023-02-14T00:44:15;18.75;;;13.75;;
62673;SDS011;62269;47.594;17.638;2023-02-14T00:45:02;17.12;;;13.77;;
62673;SDS011;62269;47.594;17.638;2023-02-14T00:45:49;16.37;;;13.55;;
62673;SDS011;62269;47.594;17.638;2023-02-14T00:46:37;18.02;;;14.52;;
62673;SDS011;62269;47.594;17.638;2023-02-14T00:47:24;16.35;;;13.52;;
62673;SDS011;62269;47.594;17.638;2023-02-14T00:48:11;16.60;;;13.73;;
62673;SDS011;62269;47.594;17.638;2023-02-14T00:48:58;16.20;;;14.32;;
62673;SDS011;62269;47.594;17.638;2023-02-14T00:49:45;18.25;;;14.60;;
62673;SDS011;62269;47.594;17.638;2023-02-14T00:50:32;18.35;;;14.23;;
62673;SDS011;62269;47.594;17.638;2023-02-14T00:51:19;17.35;;;13.52;;
62673;SDS011;62269;47.594;17.638;2023-02-14T00:52:07;16.05;;;13.50;;
62673;SDS011;62269;47.594;17.638;2023-02-14T00:52:54;17.80;;;13.93;;
62673;SDS011;62269;47.594;17.638;2023-02-14T00:53:41;17.02;;;14.07;;
62673;SDS011;62269;47.594;17.638;2023-02-14T00:54:28;16.40;;;13.95;;
62673;SDS011;62269;47.594;17.638;2023-02-14T00:55:15;16.08;;;13.35;;
62673;SDS011;62269;47.594;17.638;2023-02-14T00:56:03;15.55;;;13.50;;
62673;SDS011;62269;47.594;17.638;2023-02-14T00:56:51;17.87;;;13.13;;
62673;SDS011;62269;47.594;17.638;2023-02-14T00:57:38;18.83;;;14.55;;
62673;SDS011;62269;47.594;17.638;2023-02-14T00:58:26;17.52;;;14.18;;
62673;SDS011;62269;47.594;17.638;2023-02-14T00:59:13;16.70;;;13.82;;
62673;SDS011;62269;47.594;17.638;2023-02-14T01:00:01;20.58;;;14.23;;
62673;SDS011;62269;47.594;17.638;2023-02-14T01:00:48;15.77;;;13.38;;
62673;SDS011;62269;47.594;17.638;2023-02-14T01:01:35;15.55;;;12.82;;
62673;SDS011;62269;47.594;17.638;2023-02-14T01:02:22;16.40;;;13.43;;
62673;SDS011;62269;47.594;17.638;2023-02-14T01:03:09;18.00;;;13.90;;
62673;SDS011;62269;47.594;17.638;2023-02-14T01:03:56;17.23;;;13.85;;
62673;SDS011;62269;47.594;17.638;2023-02-14T01:04:44;16.45;;;13.82;;
62673;SDS011;62269;47.594;17.638;2023-02-14T01:05:31;15.27;;;13.10;;
62673;SDS011;62269;47.594;17.638;2023-02-14T01:06:18;15.50;;;13.20;;
62673;SDS011;62269;47.594;17.638;2023-02-14T01:07:05;14.35;;;12.77;;
62673;SDS011;62269;47.594;17.638;2023-02-14T01:07:52;17.62;;;13.85;;
62673;SDS011;62269;47.594;17.638;2023-02-14T01:08:39;15.07;;;12.23;;
62673;SDS011;62269;47.594;17.638;2023-02-14T01:09:27;13.77;;;12.13;;
62673;SDS011;62269;47.594;17.638;2023-02-14T01:10:14;16.52;;;14.02;;
62673;SDS011;62269;47.594;17.638;2023-02-14T01:11:16;15.80;;;12.32;;
62673;SDS011;62269;47.594;17.638;2023-02-14T01:12:05;14.98;;;12.32;;
62673;SDS011;62269;47.594;17.638;2023-02-14T01:12:52;15.85;;;12.65;;
62673;SDS011;62269;47.594;17.638;2023-02-14T01:13:39;16.50;;;13.48;;
62673;SDS011;62269;47.594;17.638;2023-02-14T01:14:30;14.90;;;12.60;;
62673;SDS011;62269;47.594;17.638;2023-02-14T01:15:17;16.30;;;13.15;;
62673;SDS011;62269;47.594;17.638;2023-02-14T01:16:05;14.87;;;12.20;;
62673;SDS011;62269;47.594;17.638;2023-02-14T01:16:54;15.48;;;13.07;;
62673;SDS011;62269;47.594;17.638;2023-02-14T01:17:44;16.55;;;13.23;;
62673;SDS011;62269;47.594;17.638;2023-02-14T01:18:32;15.43;;;12.05;;
62673;SDS011;62269;47.594;17.638;2023-02-14T01:19:19;14.57;;;12.27;;
62673;SDS011;62269;47.594;17.638;2023-02-14T01:20:07;15.75;;;12.50;;
62673;SDS011;62269;47.594;17.638;2023-02-14T01:20:55;15.35;;;12.52;;
62673;SDS011;62269;47.594;17.638;2023-02-14T01:21:42;15.20;;;12.45;;
62673;SDS011;62269;47.594;17.638;2023-02-14T01:22:33;15.57;;;12.48;;
62673;SDS011;62269;47.594;17.638;2023-02-14T01:23:22;15.95;;;12.68;;
62673;SDS011;62269;47.594;17.638;2023-02-14T01:24:12;13.73;;;11.85;;
62673;SDS011;62269;47.594;17.638;2023-02-14T01:24:59;14.43;;;12.18;;
62673;SDS011;62269;47.594;17.638;2023-02-14T01:25:47;13.93;;;11.60;;
62673;SDS011;62269;47.594;17.638;2023-02-14T01:26:34;15.32;;;12.63;;
62673;SDS011;62269;47.594;17.638;2023-02-14T01:27:21;14.73;;;12.00;;
62673;SDS011;62269;47.594;17.638;2023-02-14T01:28:08;15.13;;;12.07;;
62673;SDS011;62269;47.594;17.638;2023-02-14T01:28:55;15.05;;;12.25;;
62673;SDS011;62269;47.594;17.638;2023-02-14T01:29:42;15.32;;;12.52;;
62673;SDS011;62269;47.594;17.638;2023-02-14T01:30:30;14.48;;;12.20;;
62673;SDS011;62269;47.594;17.638;2023-02-14T01:31:18;16.92;;;13.50;;
62673;SDS011;62269;47.594;17.638;2023-02-14T01:32:06;14.02;;;11.98;;
62673;SDS011;62269;47.594;17.638;2023-02-14T01:32:54;17.30;;;12.10;;
62673;SDS011;62269;47.594;17.638;2023-02-14T01:33:42;14.05;;;11.60;;
62673;SDS011;62269;47.594;17.638;2023-02-14T01:34:30;14.02;;;11.77;;
62673;SDS011;62269;47.594;17.638;2023-02-14T01:35:17;16.05;;;12.10;;
62673;SDS011;62269;47.594;17.638;2023-02-14T01:36:04;15.00;;;11.77;;
62673;SDS011;62269;47.594;17.638;2023-02-14T01:36:52;14.80;;;11.85;;
62673;SDS011;62269;47.594;17.638;2023-02-14T01:37:39;13.70;;;11.45;;
62673;SDS011;62269;47.594;17.638;2023-02-14T01:38:26;14.55;;;12.48;;
62673;SDS011;62269;47.594;17.638;2023-02-14T01:39:13;14.90;;;12.25;;
62673;SDS011;62269;47.594;17.638;2023-02-14T01:40:02;14.52;;;11.50;;
62673;SDS011;62269;47.594;17.638;2023-02-14T01:40:49;14.00;;;11.82;;
62673;SDS011;62269;47.594;17.638;2023-02-14T01:41:39;16.20;;;12.32;;
62673;SDS011;62269;47.594;17.638;2023-02-14T01:42:27;15.32;;;12.30;;
62673;SDS011;62269;47.594;17.638;2023-02-14T01:43:17;14.60;;;11.73;;
62673;SDS011;62269;47.594;17.638;2023-02-14T01:45:02;15.30;;;12.73;;
62673;SDS011;62269;47.594;17.638;2023-02-14T01:45:52;14.20;;;11.77;;
62673;SDS011;62269;47.594;17.638;2023-02-14T01:46:39;14.20;;;11.40;;
62673;SDS011;62269;47.594;17.638;2023-02-14T01:47:34;15.23;;;11.75;;
62673;SDS011;62269;47.594;17.638;2023-02-14T01:48:23;14.05;;;11.80;;
62673;SDS011;62269;47.594;17.638;2023-02-14T01:49:12;14.43;;;11.68;;
62673;SDS011;62269;47.594;17.638;2023-02-14T01:50:08;14.27;;;11.18;;
62673;SDS011;62269;47.594;17.638;2023-02-14T01:50:58;15.50;;;11.93;;
62673;SDS011;62269;47.594;17.638;2023-02-14T01:51:49;14.60;;;12.05;;
62673;SDS011;62269;47.594;17.638;2023-02-14T01:52:50;14.68;;;11.82;;
62673;SDS011;62269;47.594;17.638;2023-02-14T01:53:39;16.02;;;11.77;;
62673;SDS011;62269;47.594;17.638;2023-02-14T01:54:26;13.98;;;11.18;;
62673;SDS011;62269;47.594;17.638;2023-02-14T01:55:16;16.35;;;11.60;;
62673;SDS011;62269;47.594;17.638;2023-02-14T01:56:16;16.90;;;11.52;;
62673;SDS011;62269;47.594;17.638;2023-02-14T01:57:07;13.62;;;11.38;;
62673;SDS011;62269;47.594;17.638;2023-02-14T01:57:57;16.05;;;12.15;;
62673;SDS011;62269;47.594;17.638;2023-02-14T01:58:48;14.40;;;11.52;;
62673;SDS011;62269;47.594;17.638;2023-02-14T01:59:40;14.77;;;11.55;;
62673;SDS011;62269;47.594;17.638;2023-02-14T02:00:31;15.52;;;12.32;;
62673;SDS011;62269;47.594;17.638;2023-02-14T02:01:37;14.75;;;11.43;;
62673;SDS011;62269;47.594;17.638;2023-02-14T02:02:25;14.07;;;11.77;;
62673;SDS011;62269;47.594;17.638;2023-02-14T02:03:12;14.73;;;11.10;;
62673;SDS011;62269;47.594;17.638;2023-02-14T02:04:01;13.80;;;10.98;;
62673;SDS011;62269;47.594;17.638;2023-02-14T02:04:56;14.02;;;11.32;;
62673;SDS011;62269;47.594;17.638;2023-02-14T02:05:44;14.35;;;11.73;;
62673;SDS011;62269;47.594;17.638;2023-02-14T02:06:39;16.17;;;12.50;;
62673;SDS011;62269;47.594;17.638;2023-02-14T02:07:29;14.73;;;11.63;;
62673;SDS011;62269;47.594;17.638;2023-02-14T02:08:16;13.45;;;10.90;;
62673;SDS011;62269;47.594;17.638;2023-02-14T02:09:17;14.93;;;12.25;;
62673;SDS011;62269;47.594;17.638;2023-02-14T02:10:06;14.15;;;11.20;;
62673;SDS011;62269;47.594;17.638;2023-02-14T02:10:53;13.93;;;11.38;;
62673;SDS011;62269;47.594;17.638;2023-02-14T02:11:40;15.93;;;11.57;;
62673;SDS011;62269;47.594;17.638;2023-02-14T02:12:28;14.87;;;11.80;;
62673;SDS011;62269;47.594;17.638;2023-02-14T02:13:17;14.15;;;11.63;;
62673;SDS011;62269;47.594;17.638;2023-02-14T02:14:05;13.95;;;11.32;;
62673;SDS011;62269;47.594;17.638;2023-02-14T02:14:53;13.38;;;10.88;;
62673;SDS011;62269;47.594;17.638;2023-02-14T02:15:44;14.05;;;11.40;;
62673;SDS011;62269;47.594;17.638;2023-02-14T02:16:45;14.45;;;11.90;;
62673;SDS011;62269;47.594;17.638;2023-02-14T02:19:06;14.07;;;11.15;;
62673;SDS011;62269;47.594;17.638;2023-02-14T02:22:14;14.32;;;11.15;;
62673;SDS011;62269;47.594;17.638;2023-02-14T02:24:21;15.13;;;11.40;;
62673;SDS011;62269;47.594;17.638;2023-02-14T02:25:15;13.75;;;11.23;;
62673;SDS011;62269;47.594;17.638;2023-02-14T02:35:56;13.32;;;10.63;;
62673;SDS011;62269;47.594;17.638;2023-02-14T02:36:59;13.00;;;10.65;;
62673;SDS011;62269;47.594;17.638;2023-02-14T02:38:51;13.65;;;10.52;;
62673;SDS011;62269;47.594;17.638;2023-02-14T02:39:44;14.35;;;11.18;;
62673;SDS011;62269;47.594;17.638;2023-02-14T02:40:46;14.95;;;11.95;;
62673;SDS011;62269;47.594;17.638;2023-02-14T02:45:32;14.38;;;11.15;;
62673;SDS011;62269;47.594;17.638;2023-02-14T02:48:14;13.07;;;10.20;;
62673;SDS011;62269;47.594;17.638;2023-02-14T02:49:13;13.07;;;10.02;;
62673;SDS011;62269;47.594;17.638;2023-02-14T02:50:25;14.05;;;11.25;;
62673;SDS011;62269;47.594;17.638;2023-02-14T02:51:45;13.13;;;10.32;;
62673;SDS011;62269;47.594;17.638;2023-02-14T02:53:18;12.18;;;10.05;;
62673;SDS011;62269;47.594;17.638;2023-02-14T02:54:22;14.43;;;10.65;;
62673;SDS011;62269;47.594;17.638;2023-02-14T02:55:14;12.95;;;10.68;;
62673;SDS011;62269;47.594;17.638;2023-02-14T02:56:06;13.07;;;10.02;;
62673;SDS011;62269;47.594;17.638;2023-02-14T02:57:31;13.38;;;10.05;;
62673;SDS011;62269;47.594;17.638;2023-02-14T02:58:21;13.75;;;10.73;;
62673;SDS011;62269;47.594;17.638;2023-02-14T03:00:09;13.93;;;11.05;;
62673;SDS011;62269;47.594;17.638;2023-02-14T03:00:58;13.10;;;10.85;;
62673;SDS011;62269;47.594;17.638;2023-02-14T03:01:48;13.18;;;10.73;;
62673;SDS011;62269;47.594;17.638;2023-02-14T03:02:41;13.90;;;10.20;;
62673;SDS011;62269;47.594;17.638;2023-02-14T03:03:51;14.57;;;10.50;;
62673;SDS011;62269;47.594;17.638;2023-02-14T03:05:01;13.95;;;10.77;;
62673;SDS011;62269;47.594;17.638;2023-02-14T03:05:50;12.45;;;10.57;;
62673;SDS011;62269;47.594;17.638;2023-02-14T03:06:37;12.43;;;10.20;;
62673;SDS011;62269;47.594;17.638;2023-02-14T03:08:20;13.45;;;10.40;;
62673;SDS011;62269;47.594;17.638;2023-02-14T03:09:10;12.70;;;10.38;;
62673;SDS011;62269;47.594;17.638;2023-02-14T03:09:59;12.75;;;9.90;;
62673;SDS011;62269;47.594;17.638;2023-02-14T03:10:47;12.57;;;9.95;;
62673;SDS011;62269;47.594;17.638;2023-02-14T03:11:34;12.20;;;10.27;;
62673;SDS011;62269;47.594;17.638;2023-02-14T03:14:21;12.30;;;10.05;;
62673;SDS011;62269;47.594;17.638;2023-02-14T03:20:07;9.52;;;7.82;;
62673;SDS011;62269;47.594;17.638;2023-02-14T03:21:07;15.20;;;11.07;;
62673;SDS011;62269;47.594;17.638;2023-02-14T03:24:45;15.27;;;10.32;;
62673;SDS011;62269;47.594;17.638;2023-02-14T03:26:47;12.43;;;10.30;;
62673;SDS011;62269;47.594;17.638;2023-02-14T03:27:45;13.38;;;10.38;;
62673;SDS011;62269;47.594;17.638;2023-02-14T03:31:03;14.57;;;10.40;;
62673;SDS011;62269;47.594;17.638;2023-02-14T03:31:59;14.13;;;10.80;;
62673;SDS011;62269;47.594;17.638;2023-02-14T03:33:20;12.45;;;9.98;;
62673;SDS011;62269;47.594;17.638;2023-02-14T03:34:24;13.35;;;9.40;;
62673;SDS011;62269;47.594;17.638;2023-02-14T03:36:49;15.57;;;9.50;;
62673;SDS011;62269;47.594;17.638;2023-02-14T03:37:42;14.15;;;10.23;;
62673;SDS011;62269;47.594;17.638;2023-02-14T03:40:08;14.70;;;10.45;;
62673;SDS011;62269;47.594;17.638;2023-02-14T03:41:02;15.35;;;11.18;;
62673;SDS011;62269;47.594;17.638;2023-02-14T03:42:01;16.77;;;11.68;;
62673;SDS011;62269;47.594;17.638;2023-02-14T03:42:53;14.40;;;10.50;;
62673;SDS011;62269;47.594;17.638;2023-02-14T03:43:44;14.43;;;11.05;;
62673;SDS011;62269;47.594;17.638;2023-02-14T03:44:36;14.70;;;10.65;;
62673;SDS011;62269;47.594;17.638;2023-02-14T03:45:39;16.37;;;11.63;;
62673;SDS011;62269;47.594;17.638;2023-02-14T03:46:29;15.05;;;10.90;;
62673;SDS011;62269;47.594;17.638;2023-02-14T03:47:21;16.30;;;12.20;;
62673;SDS011;62269;47.594;17.638;2023-02-14T03:48:10;18.17;;;12.40;;
62673;SDS011;62269;47.594;17.638;2023-02-14T03:49:00;15.60;;;11.88;;
62673;SDS011;62269;47.594;17.638;2023-02-14T03:50:01;17.98;;;13.05;;
62673;SDS011;62269;47.594;17.638;2023-02-14T03:50:56;15.93;;;11.65;;
62673;SDS011;62269;47.594;17.638;2023-02-14T03:51:44;17.20;;;13.05;;
62673;SDS011;62269;47.594;17.638;2023-02-14T03:52:34;17.20;;;12.55;;
62673;SDS011;62269;47.594;17.638;2023-02-14T03:53:24;17.00;;;12.32;;
62673;SDS011;62269;47.594;17.638;2023-02-14T03:54:13;16.70;;;12.68;;
62673;SDS011;62269;47.594;17.638;2023-02-14T03:55:02;15.88;;;11.88;;
62673;SDS011;62269;47.594;17.638;2023-02-14T03:55:57;18.90;;;13.23;;
62673;SDS011;62269;47.594;17.638;2023-02-14T03:56:54;18.17;;;12.70;;
62673;SDS011;62269;47.594;17.638;2023-02-14T03:58:17;19.90;;;13.70;;
62673;SDS011;62269;47.594;17.638;2023-02-14T03:58:59;19.87;;;13.30;;
62673;SDS011;62269;47.594;17.638;2023-02-14T03:59:52;18.85;;;13.05;;
62673;SDS011;62269;47.594;17.638;2023-02-14T04:00:39;19.98;;;13.05;;
62673;SDS011;62269;47.594;17.638;2023-02-14T04:02:48;16.00;;;11.12;;
62673;SDS011;62269;47.594;17.638;2023-02-14T04:03:39;17.87;;;12.10;;
62673;SDS011;62269;47.594;17.638;2023-02-14T04:04:30;17.23;;;12.95;;
62673;SDS011;62269;47.594;17.638;2023-02-14T04:05:24;16.67;;;12.25;;
62673;SDS011;62269;47.594;17.638;2023-02-14T04:06:12;14.80;;;11.55;;
62673;SDS011;62269;47.594;17.638;2023-02-14T04:07:10;14.93;;;11.23;;
62673;SDS011;62269;47.594;17.638;2023-02-14T04:07:58;15.55;;;11.45;;
62673;SDS011;62269;47.594;17.638;2023-02-14T04:08:45;17.98;;;12.02;;
62673;SDS011;62269;47.594;17.638;2023-02-14T04:09:32;14.60;;;11.68;;
62673;SDS011;62269;47.594;17.638;2023-02-14T04:10:19;16.20;;;11.60;;
62673;SDS011;62269;47.594;17.638;2023-02-14T04:11:07;15.85;;;12.23;;
62673;SDS011;62269;47.594;17.638;2023-02-14T04:11:54;13.80;;;10.30;;
62673;SDS011;62269;47.594;17.638;2023-02-14T04:12:41;13.70;;;9.88;;
62673;SDS011;62269;47.594;17.638;2023-02-14T04:13:28;14.23;;;10.45;;
62673;SDS011;62269;47.594;17.638;2023-02-14T04:14:16;15.45;;;11.15;;
62673;SDS011;62269;47.594;17.638;2023-02-14T04:15:03;14.00;;;10.45;;
62673;SDS011;62269;47.594;17.638;2023-02-14T04:15:50;13.77;;;10.93;;
62673;SDS011;62269;47.594;17.638;2023-02-14T04:16:37;13.52;;;10.35;;
62673;SDS011;62269;47.594;17.638;2023-02-14T04:17:43;13.85;;;10.80;;
62673;SDS011;62269;47.594;17.638;2023-02-14T04:18:49;13.80;;;10.25;;
62673;SDS011;62269;47.594;17.638;2023-02-14T04:19:54;14.50;;;10.50;;
62673;SDS011;62269;47.594;17.638;2023-02-14T04:20:41;13.20;;;10.18;;
62673;SDS011;62269;47.594;17.638;2023-02-14T04:21:28;12.80;;;10.32;;
62673;SDS011;62269;47.594;17.638;2023-02-14T04:22:15;12.60;;;10.65;;
62673;SDS011;62269;47.594;17.638;2023-02-14T04:23:02;12.10;;;9.32;;
62673;SDS011;62269;47.594;17.638;2023-02-14T04:23:49;12.32;;;9.68;;
62673;SDS011;62269;47.594;17.638;2023-02-14T04:24:36;13.18;;;9.38;;
62673;SDS011;62269;47.594;17.638;2023-02-14T04:25:23;13.60;;;10.10;;
62673;SDS011;62269;47.594;17.638;2023-02-14T04:26:11;11.98;;;9.60;;
62673;SDS011;62269;47.594;17.638;2023-02-14T04:26:58;12.60;;;10.13;;
62673;SDS011;62269;47.594;17.638;2023-02-14T04:27:57;13.13;;;10.38;;
62673;SDS011;62269;47.594;17.638;2023-02-14T04:28:43;14.98;;;10.05;;
62673;SDS011;62269;47.594;17.638;2023-02-14T04:29:30;13.77;;;10.40;;
62673;SDS011;62269;47.594;17.638;2023-02-14T04:30:18;12.85;;;10.35;;
62673;SDS011;62269;47.594;17.638;2023-02-14T04:31:06;11.82;;;9.93;;
62673;SDS011;62269;47.594;17.638;2023-02-14T04:31:53;13.13;;;9.98;;
62673;SDS011;62269;47.594;17.638;2023-02-14T04:32:40;12.85;;;9.73;;
62673;SDS011;62269;47.594;17.638;2023-02-14T04:33:28;12.07;;;9.70;;
62673;SDS011;62269;47.594;17.638;2023-02-14T04:34:17;12.48;;;9.93;;
62673;SDS011;62269;47.594;17.638;2023-02-14T04:35:04;13.32;;;10.27;;
62673;SDS011;62269;47.594;17.638;2023-02-14T04:35:51;12.27;;;10.05;;
62673;SDS011;62269;47.594;17.638;2023-02-14T04:36:38;12.50;;;10.10;;
62673;SDS011;62269;47.594;17.638;2023-02-14T04:37:25;13.13;;;10.10;;
62673;SDS011;62269;47.594;17.638;2023-02-14T04:38:12;11.60;;;9.13;;
62673;SDS011;62269;47.594;17.638;2023-02-14T04:38:59;13.62;;;11.05;;
62673;SDS011;62269;47.594;17.638;2023-02-14T04:39:46;13.30;;;10.20;;
62673;SDS011;62269;47.594;17.638;2023-02-14T04:40:34;12.98;;;10.55;;
62673;SDS011;62269;47.594;17.638;2023-02-14T04:41:21;13.88;;;10.52;;
62673;SDS011;62269;47.594;17.638;2023-02-14T04:42:08;13.15;;;10.25;;
62673;SDS011;62269;47.594;17.638;2023-02-14T04:42:55;12.98;;;10.27;;
62673;SDS011;62269;47.594;17.638;2023-02-14T04:43:42;12.23;;;10.13;;
62673;SDS011;62269;47.594;17.638;2023-02-14T04:44:29;13.02;;;10.13;;
62673;SDS011;62269;47.594;17.638;2023-02-14T04:45:16;13.15;;;10.38;;
62673;SDS011;62269;47.594;17.638;2023-02-14T04:46:03;13.35;;;10.65;;
62673;SDS011;62269;47.594;17.638;2023-02-14T04:46:50;12.50;;;10.23;;
62673;SDS011;62269;47.594;17.638;2023-02-14T04:47:37;12.07;;;9.57;;
62673;SDS011;62269;47.594;17.638;2023-02-14T04:48:24;11.10;;;9.30;;
62673;SDS011;62269;47.594;17.638;2023-02-14T04:49:11;12.73;;;10.00;;
62673;SDS011;62269;47.594;17.638;2023-02-14T04:49:59;11.90;;;9.45;;
62673;SDS011;62269;47.594;17.638;2023-02-14T04:50:50;13.10;;;10.60;;
62673;SDS011;62269;47.594;17.638;2023-02-14T04:51:38;11.55;;;10.00;;
62673;SDS011;62269;47.594;17.638;2023-02-14T04:52:25;14.10;;;10.18;;
62673;SDS011;62269;47.594;17.638;2023-02-14T04:53:12;12.55;;;10.40;;
62673;SDS011;62269;47.594;17.638;2023-02-14T04:53:59;12.77;;;10.13;;
62673;SDS011;62269;47.594;17.638;2023-02-14T04:54:46;14.95;;;10.70;;
62673;SDS011;62269;47.594;17.638;2023-02-14T04:55:34;13.77;;;10.65;;
62673;SDS011;62269;47.594;17.638;2023-02-14T04:56:21;12.07;;;10.13;;
62673;SDS011;62269;47.594;17.638;2023-02-14T04:57:08;13.80;;;10.43;;
62673;SDS011;62269;47.594;17.638;2023-02-14T04:57:55;12.73;;;10.15;;
62673;SDS011;62269;47.594;17.638;2023-02-14T04:58:42;12.37;;;10.40;;
62673;SDS011;62269;47.594;17.638;2023-02-14T04:59:29;13.48;;;10.65;;
62673;SDS011;62269;47.594;17.638;2023-02-14T05:00:16;12.35;;;10.13;;
62673;SDS011;62269;47.594;17.638;2023-02-14T05:01:03;14.15;;;10.45;;
62673;SDS011;62269;47.594;17.638;2023-02-14T05:01:51;13.32;;;10.63;;
62673;SDS011;62269;47.594;17.638;2023-02-14T05:02:39;13.48;;;10.30;;
62673;SDS011;62269;47.594;17.638;2023-02-14T05:03:26;13.07;;;10.20;;
62673;SDS011;62269;47.594;17.638;2023-02-14T05:04:13;13.30;;;10.43;;
62673;SDS011;62269;47.594;17.638;2023-02-14T05:05:00;13.07;;;9.57;;
62673;SDS011;62269;47.594;17.638;2023-02-14T05:05:47;12.90;;;10.60;;
62673;SDS011;62269;47.594;17.638;2023-02-14T05:06:34;13.40;;;10.63;;
62673;SDS011;62269;47.594;17.638;2023-02-14T05:07:21;13.50;;;10.32;;
62673;SDS011;62269;47.594;17.638;2023-02-14T05:08:07;13.77;;;10.35;;
62673;SDS011;62269;47.594;17.638;2023-02-14T05:08:55;17.67;;;11.43;;
62673;SDS011;62269;47.594;17.638;2023-02-14T05:09:42;13.23;;;9.63;;
62673;SDS011;62269;47.594;17.638;2023-02-14T05:10:29;13.10;;;9.85;;
62673;SDS011;62269;47.594;17.638;2023-02-14T05:11:16;12.55;;;10.07;;
62673;SDS011;62269;47.594;17.638;2023-02-14T05:12:03;12.77;;;9.80;;
62673;SDS011;62269;47.594;17.638;2023-02-14T05:12:50;12.90;;;10.25;;
62673;SDS011;62269;47.594;17.638;2023-02-14T05:13:37;11.12;;;9.63;;
62673;SDS011;62269;47.594;17.638;2023-02-14T05:14:24;13.15;;;10.70;;
62673;SDS011;62269;47.594;17.638;2023-02-14T05:15:11;12.10;;;10.18;;
62673;SDS011;62269;47.594;17.638;2023-02-14T05:15:58;12.90;;;9.88;;
62673;SDS011;62269;47.594;17.638;2023-02-14T05:16:45;12.27;;;10.57;;
62673;SDS011;62269;47.594;17.638;2023-02-14T05:17:32;12.55;;;10.05;;
62673;SDS011;62269;47.594;17.638;2023-02-14T05:18:19;13.20;;;10.30;;
62673;SDS011;62269;47.594;17.638;2023-02-14T05:19:07;12.48;;;10.43;;
62673;SDS011;62269;47.594;17.638;2023-02-14T05:19:54;13.07;;;9.98;;
62673;SDS011;62269;47.594;17.638;2023-02-14T05:20:41;12.52;;;10.23;;
62673;SDS011;62269;47.594;17.638;2023-02-14T05:21:28;12.90;;;9.75;;
62673;SDS011;62269;47.594;17.638;2023-02-14T05:22:18;14.60;;;11.00;;
62673;SDS011;62269;47.594;17.638;2023-02-14T05:23:05;12.43;;;10.30;;
62673;SDS011;62269;47.594;17.638;2023-02-14T05:23:59;11.82;;;9.90;;
62673;SDS011;62269;47.594;17.638;2023-02-14T05:24:46;12.73;;;10.60;;
62673;SDS011;62269;47.594;17.638;2023-02-14T05:25:33;13.38;;;10.57;;
62673;SDS011;62269;47.594;17.638;2023-02-14T05:26:20;13.00;;;10.25;;
62673;SDS011;62269;47.594;17.638;2023-02-14T05:27:08;12.90;;;10.27;;
62673;SDS011;62269;47.594;17.638;2023-02-14T05:27:57;13.07;;;10.45;;
62673;SDS011;62269;47.594;17.638;2023-02-14T05:28:44;14.35;;;11.50;;
62673;SDS011;62269;47.594;17.638;2023-02-14T05:29:31;13.52;;;11.20;;
62673;SDS011;62269;47.594;17.638;2023-02-14T05:30:18;13.80;;;10.60;;
62673;SDS011;62269;47.594;17.638;2023-02-14T05:31:08;13.97;;;10.53;;